Time,TemperatureF,DewpointF,PressureIn,WindDirection,WindDirectionDegrees,WindSpeedMPH,WindSpeedGustMPH,Humidity,HourlyPrecipIn,Conditions,Clouds,dailyrainin,SolarRadiationWatts/m^2,SoftwareType,DateUTC
2013-01-01 00:01:00,27.0,23.0,-100.00,North,357,2.0,8.0,86,0.00,,,0.00,0.000000,,2013-01-01 07:01:00,
2013-01-01 00:22:00,25.0,22.0,-100.00,North,355,0.0,7.0,87,0.00,,,0.00,0.000000,,2013-01-01 07:22:00,
2013-01-01 00:32:00,25.0,22.0,-100.00,North,355,0.0,7.0,87,0.00,,,0.00,0.000000,,2013-01-01 07:32:00,
2013-01-01 00:42:00,25.0,22.0,-100.00,North,355,0.0,7.0,87,0.00,,,0.00,0.000000,,2013-01-01 07:42:00,
2013-01-01 00:52:00,25.0,22.0,-100.00,North,355,0.0,7.0,87,0.00,,,0.00,0.000000,,2013-01-01 07:52:00,
2013-01-01 01:02:00,25.0,22.0,-100.00,North,355,0.0,7.0,87,0.00,,,0.00,0.000000,,2013-01-01 08:02:00,
2013-01-01 01:32:00,25.0,21.0,-100.00,NNW,347,1.0,7.0,86,0.00,,,0.00,0.000000,,2013-01-01 08:32:00,
2013-01-01 01:42:00,25.0,21.0,-100.00,NNW,347,1.0,7.0,86,0.00,,,0.00,0.000000,,2013-01-01 08:42:00,
2013-01-01 01:53:00,25.0,21.0,-100.00,NNW,347,1.0,7.0,86,0.00,,,0.00,0.000000,,2013-01-01 08:53:00,
2013-01-01 02:02:00,25.0,21.0,-100.00,NNW,347,1.0,7.0,86,0.00,,,0.00,0.000000,,2013-01-01 09:02:00,
2013-01-01 02:22:00,24.0,19.0,-100.00,ESE,106,5.0,8.0,80,0.00,,,0.00,0.000000,,2013-01-01 09:22:00,
2013-01-01 02:32:00,24.0,19.0,-100.00,ESE,106,5.0,8.0,80,0.00,,,0.00,0.000000,,2013-01-01 09:32:00,
2013-01-01 02:42:00,24.0,19.0,-100.00,ESE,106,5.0,8.0,80,0.00,,,0.00,0.000000,,2013-01-01 09:42:00,
2013-01-01 02:52:00,24.0,19.0,-100.00,ESE,106,5.0,8.0,80,0.00,,,0.00,0.000000,,2013-01-01 09:52:00,
2013-01-01 03:01:00,24.0,19.0,-100.00,ESE,106,5.0,8.0,80,0.00,,,0.00,0.000000,,2013-01-01 10:01:00,
2013-01-01 03:33:00,21.0,15.0,-100.00,North,4,6.0,12.0,77,0.00,,,0.00,0.000000,,2013-01-01 10:33:00,
2013-01-01 03:43:00,21.0,15.0,-100.00,North,4,6.0,12.0,77,0.00,,,0.00,0.000000,,2013-01-01 10:43:00,
2013-01-01 03:52:00,21.0,15.0,-100.00,North,4,6.0,12.0,77,0.00,,,0.00,0.000000,,2013-01-01 10:52:00,
2013-01-01 04:01:00,21.0,15.0,-100.00,North,4,6.0,12.0,77,0.00,,,0.00,0.000000,,2013-01-01 11:01:00,
2013-01-01 04:23:00,20.0,14.0,-100.00,NW,318,5.0,12.0,77,0.00,,,0.00,0.000000,,2013-01-01 11:23:00,
2013-01-01 04:33:00,20.0,14.0,-100.00,NW,318,5.0,12.0,77,0.00,,,0.00,0.000000,,2013-01-01 11:33:00,
2013-01-01 04:43:00,20.0,14.0,-100.00,NW,318,5.0,12.0,77,0.00,,,0.00,0.000000,,2013-01-01 11:43:00,
2013-01-01 04:53:00,20.0,14.0,-100.00,NW,318,5.0,12.0,77,0.00,,,0.00,0.000000,,2013-01-01 11:53:00,
2013-01-01 05:02:00,20.0,14.0,-100.00,NW,318,5.0,12.0,77,0.00,,,0.00,0.000000,,2013-01-01 12:02:00,
2013-01-01 05:33:00,19.0,13.0,-100.00,SE,130,6.0,12.0,76,0.00,,,0.00,0.000000,,2013-01-01 12:33:00,
2013-01-01 05:43:00,19.0,13.0,-100.00,SE,130,6.0,12.0,76,0.00,,,0.00,0.000000,,2013-01-01 12:43:00,
2013-01-01 05:52:00,19.0,13.0,-100.00,SE,130,6.0,12.0,76,0.00,,,0.00,0.000000,,2013-01-01 12:52:00,
2013-01-01 06:02:00,19.0,13.0,-100.00,SE,130,6.0,12.0,76,0.00,,,0.00,0.000000,,2013-01-01 13:02:00,
2013-01-01 06:33:00,19.0,13.0,-100.00,North,356,4.0,12.0,77,0.00,,,0.00,0.000000,,2013-01-01 13:33:00,
2013-01-01 06:43:00,19.0,13.0,-100.00,North,356,4.0,12.0,77,0.00,,,0.00,0.000000,,2013-01-01 13:43:00,
2013-01-01 06:52:00,19.0,13.0,-100.00,North,356,4.0,12.0,77,0.00,,,0.00,0.000000,,2013-01-01 13:52:00,
2013-01-01 07:02:00,19.0,13.0,-100.00,North,356,4.0,12.0,77,0.00,,,0.00,0.000000,,2013-01-01 14:02:00,
2013-01-01 07:33:00,20.0,15.0,-100.00,SSW,208,3.0,10.0,80,0.00,,,0.00,0.000000,,2013-01-01 14:33:00,
2013-01-01 07:43:00,20.0,15.0,-100.00,SSW,208,3.0,10.0,80,0.00,,,0.00,0.000000,,2013-01-01 14:43:00,
2013-01-01 07:53:00,20.0,15.0,-100.00,SSW,208,3.0,10.0,80,0.00,,,0.00,0.000000,,2013-01-01 14:53:00,
2013-01-01 08:02:00,20.0,15.0,-100.00,SSW,208,3.0,10.0,80,0.00,,,0.00,0.000000,,2013-01-01 15:02:00,
2013-01-01 08:33:00,21.0,15.0,-100.00,East,93,6.0,12.0,78,0.00,,,0.00,1.000000,,2013-01-01 15:33:00,
2013-01-01 08:43:00,21.0,15.0,-100.00,East,93,6.0,12.0,78,0.00,,,0.00,1.000000,,2013-01-01 15:43:00,
2013-01-01 08:53:00,21.0,15.0,-100.00,East,93,6.0,12.0,78,0.00,,,0.00,1.000000,,2013-01-01 15:53:00,
2013-01-01 09:02:00,21.0,15.0,-100.00,East,93,6.0,12.0,78,0.00,,,0.00,1.000000,,2013-01-01 16:02:00,
2013-01-01 09:33:00,23.0,15.0,-100.00,NNW,347,6.0,16.0,70,0.00,,,0.00,16.000000,,2013-01-01 16:33:00,
2013-01-01 09:43:00,23.0,15.0,-100.00,NNW,347,6.0,16.0,70,0.00,,,0.00,16.000000,,2013-01-01 16:43:00,
2013-01-01 09:53:00,23.0,15.0,-100.00,NNW,347,6.0,16.0,70,0.00,,,0.00,16.000000,,2013-01-01 16:53:00,
2013-01-01 10:02:00,23.0,15.0,-100.00,NNW,347,6.0,16.0,70,0.00,,,0.00,16.000000,,2013-01-01 17:02:00,
2013-01-01 10:33:00,31.0,17.0,-100.00,NNW,347,3.0,14.0,55,0.00,,,0.00,67.000000,,2013-01-01 17:33:00,
2013-01-01 10:43:00,31.0,17.0,-100.00,NNW,347,3.0,14.0,55,0.00,,,0.00,67.000000,,2013-01-01 17:43:00,
2013-01-01 10:53:00,31.0,17.0,-100.00,NNW,347,3.0,14.0,55,0.00,,,0.00,67.000000,,2013-01-01 17:53:00,
2013-01-01 11:02:00,31.0,17.0,-100.00,NNW,347,3.0,14.0,55,0.00,,,0.00,67.000000,,2013-01-01 18:02:00,
2013-01-01 11:33:00,40.0,20.0,-100.00,North,351,2.0,10.0,45,0.00,,,0.00,109.000000,,2013-01-01 18:33:00,
2013-01-01 11:43:00,40.0,20.0,-100.00,North,351,2.0,10.0,45,0.00,,,0.00,109.000000,,2013-01-01 18:43:00,
2013-01-01 11:53:00,40.0,20.0,-100.00,North,351,2.0,10.0,45,0.00,,,0.00,109.000000,,2013-01-01 18:53:00,
2013-01-01 12:02:00,40.0,20.0,-100.00,North,351,2.0,10.0,45,0.00,,,0.00,109.000000,,2013-01-01 19:02:00,
2013-01-01 12:33:00,41.0,18.0,-100.00,North,0,0.0,6.0,39,0.00,,,-99.99,371.000000,,2013-01-01 19:33:00,
2013-01-01 12:43:00,41.0,18.0,-100.00,North,0,0.0,6.0,39,0.00,,,-99.99,371.000000,,2013-01-01 19:43:00,
2013-01-01 12:52:00,41.0,18.0,-100.00,North,0,0.0,6.0,39,0.00,,,-99.99,371.000000,,2013-01-01 19:52:00,
2013-01-01 13:02:00,41.0,18.0,-100.00,North,0,0.0,6.0,39,0.00,,,-99.99,371.000000,,2013-01-01 20:02:00,
2013-01-01 13:23:00,44.0,20.0,-100.00,North,0,0.0,5.0,38,0.00,,,0.00,496.000000,,2013-01-01 20:23:00,
2013-01-01 13:32:00,44.0,20.0,-100.00,North,0,0.0,5.0,38,0.00,,,0.00,496.000000,,2013-01-01 20:32:00,
2013-01-01 13:42:00,44.0,20.0,-100.00,North,0,0.0,5.0,38,0.00,,,0.00,496.000000,,2013-01-01 20:42:00,
2013-01-01 13:53:00,44.0,20.0,-100.00,North,0,0.0,5.0,38,0.00,,,0.00,496.000000,,2013-01-01 20:53:00,
2013-01-01 14:02:00,44.0,20.0,-100.00,North,0,0.0,5.0,38,0.00,,,0.00,496.000000,,2013-01-01 21:02:00,
2013-01-01 14:33:00,43.0,23.0,-100.00,North,0,0.0,5.0,44,0.00,,,0.00,478.000000,,2013-01-01 21:33:00,
2013-01-01 14:42:00,43.0,23.0,-100.00,North,0,0.0,5.0,44,0.00,,,0.00,478.000000,,2013-01-01 21:42:00,
2013-01-01 14:53:00,43.0,23.0,-100.00,North,0,0.0,5.0,44,0.00,,,0.00,478.000000,,2013-01-01 21:53:00,
2013-01-01 15:02:00,43.0,23.0,-100.00,North,0,0.0,5.0,44,0.00,,,0.00,478.000000,,2013-01-01 22:02:00,
2013-01-01 15:33:00,42.0,27.0,-100.00,NNW,339,0.0,5.0,55,0.00,,,0.00,390.000000,,2013-01-01 22:33:00,
2013-01-01 15:43:00,42.0,27.0,-100.00,NNW,339,0.0,5.0,55,0.00,,,0.00,390.000000,,2013-01-01 22:43:00,
2013-01-01 15:52:00,42.0,27.0,-100.00,NNW,339,0.0,5.0,55,0.00,,,0.00,390.000000,,2013-01-01 22:52:00,
2013-01-01 16:02:00,42.0,27.0,-100.00,NNW,339,0.0,5.0,55,0.00,,,0.00,390.000000,,2013-01-01 23:02:00,
2013-01-01 16:22:00,36.0,20.0,-100.00,NNW,347,0.0,5.0,51,0.00,,,0.00,116.000000,,2013-01-01 23:22:00,
2013-01-01 16:32:00,36.0,20.0,-100.00,NNW,347,0.0,5.0,51,0.00,,,0.00,116.000000,,2013-01-01 23:32:00,
2013-01-01 16:42:00,36.0,20.0,-100.00,NNW,347,0.0,5.0,51,0.00,,,0.00,116.000000,,2013-01-01 23:42:00,
2013-01-01 16:52:00,36.0,20.0,-100.00,NNW,347,0.0,5.0,51,0.00,,,0.00,116.000000,,2013-01-01 23:52:00,
2013-01-01 17:02:00,36.0,20.0,-100.00,NNW,347,0.0,5.0,51,0.00,,,0.00,116.000000,,2013-01-02 00:02:00,
2013-01-01 17:32:00,33.0,14.0,-100.00,WNW,295,6.0,6.0,45,0.00,,,0.00,15.000000,,2013-01-02 00:32:00,
2013-01-01 17:43:00,33.0,14.0,-100.00,WNW,295,6.0,6.0,45,0.00,,,0.00,15.000000,,2013-01-02 00:43:00,
2013-01-01 17:52:00,33.0,14.0,-100.00,WNW,295,6.0,6.0,45,0.00,,,0.00,15.000000,,2013-01-02 00:52:00,
2013-01-01 18:02:00,33.0,14.0,-100.00,WNW,295,6.0,6.0,45,0.00,,,0.00,15.000000,,2013-01-02 01:02:00,
2013-01-01 18:22:00,31.0,15.0,-100.00,North,0,1.0,13.0,52,0.00,,,0.00,2.000000,,2013-01-02 01:22:00,
2013-01-01 18:32:00,31.0,15.0,-100.00,North,0,1.0,13.0,52,0.00,,,0.00,2.000000,,2013-01-02 01:32:00,
2013-01-01 18:42:00,31.0,15.0,-100.00,North,0,1.0,13.0,52,0.00,,,0.00,2.000000,,2013-01-02 01:42:00,
2013-01-01 18:52:00,31.0,15.0,-100.00,North,0,1.0,13.0,52,0.00,,,0.00,2.000000,,2013-01-02 01:52:00,
2013-01-01 19:02:00,31.0,15.0,-100.00,North,0,1.0,13.0,52,0.00,,,0.00,2.000000,,2013-01-02 02:02:00,
2013-01-01 19:22:00,28.0,14.0,-100.00,North,350,0.0,11.0,56,0.00,,,0.00,0.000000,,2013-01-02 02:22:00,
2013-01-01 19:32:00,28.0,14.0,-100.00,North,350,0.0,11.0,56,0.00,,,0.00,0.000000,,2013-01-02 02:32:00,
2013-01-01 19:42:00,28.0,14.0,-100.00,North,350,0.0,11.0,56,0.00,,,0.00,0.000000,,2013-01-02 02:42:00,
2013-01-01 19:53:00,28.0,14.0,-100.00,North,350,0.0,11.0,56,0.00,,,0.00,0.000000,,2013-01-02 02:53:00,
2013-01-01 20:02:00,28.0,14.0,-100.00,North,350,0.0,11.0,56,0.00,,,0.00,0.000000,,2013-01-02 03:02:00,
2013-01-01 20:32:00,28.0,14.0,-100.00,NNW,342,1.0,7.0,56,0.00,,,0.00,0.000000,,2013-01-02 03:32:00,
2013-01-01 20:42:00,28.0,14.0,-100.00,NNW,342,1.0,7.0,56,0.00,,,0.00,0.000000,,2013-01-02 03:42:00,
2013-01-01 20:52:00,28.0,14.0,-100.00,NNW,342,1.0,7.0,56,0.00,,,0.00,0.000000,,2013-01-02 03:52:00,
2013-01-01 21:02:00,28.0,14.0,-100.00,NNW,342,1.0,7.0,56,0.00,,,0.00,0.000000,,2013-01-02 04:02:00,
2013-01-01 21:32:00,29.0,13.0,-100.00,NW,309,7.0,16.0,50,0.00,,,0.00,0.000000,,2013-01-02 04:32:00,
2013-01-01 21:42:00,29.0,13.0,-100.00,NW,309,7.0,16.0,50,0.00,,,0.00,0.000000,,2013-01-02 04:42:00,
2013-01-01 21:52:00,29.0,13.0,-100.00,NW,309,7.0,16.0,50,0.00,,,0.00,0.000000,,2013-01-02 04:52:00,
2013-01-01 22:02:00,29.0,13.0,-100.00,NW,309,7.0,16.0,50,0.00,,,0.00,0.000000,,2013-01-02 05:02:00,
2013-01-01 22:33:00,27.0,12.0,-100.00,West,261,10.0,22.0,52,0.00,,,0.00,0.000000,,2013-01-02 05:33:00,
2013-01-01 22:42:00,27.0,12.0,-100.00,West,261,10.0,22.0,52,0.00,,,0.00,0.000000,,2013-01-02 05:42:00,
2013-01-01 22:52:00,27.0,12.0,-100.00,West,261,10.0,22.0,52,0.00,,,0.00,0.000000,,2013-01-02 05:52:00,
2013-01-01 23:02:00,27.0,12.0,-100.00,West,261,10.0,22.0,52,0.00,,,0.00,0.000000,,2013-01-02 06:02:00,
2013-01-01 23:32:00,26.0,11.0,-100.00,SSW,202,0.0,20.0,53,0.00,,,-99.99,0.000000,,2013-01-02 06:32:00,
2013-01-01 23:42:00,26.0,11.0,-100.00,SSW,202,0.0,20.0,53,0.00,,,-99.99,0.000000,,2013-01-02 06:42:00,
2013-01-01 23:52:00,26.0,11.0,-100.00,SSW,202,0.0,20.0,53,0.00,,,-99.99,0.000000,,2013-01-02 06:52:00,